sensor_id;sensor_type;location;lat;lon;timestamp;temperature;humidity
34877;DHT22;21086;44.780;17.194;2023-06-14T00:01:02;16.30;99.90
34877;DHT22;21086;44.780;17.194;2023-06-14T00:03:33;16.20;99.90
34877;DHT22;21086;44.780;17.194;2023-06-14T00:06:00;16.30;99.90
34877;DHT22;21086;44.780;17.194;2023-06-14T00:08:27;16.20;99.90
34877;DHT22;21086;44.780;17.194;2023-06-14T00:10:54;16.20;99.90
34877;DHT22;21086;44.780;17.194;2023-06-14T00:13:21;16.20;99.90
34877;DHT22;21086;44.780;17.194;2023-06-14T00:15:48;16.20;99.90
34877;DHT22;21086;44.780;17.194;2023-06-14T00:18:15;16.10;99.90
34877;DHT22;21086;44.780;17.194;2023-06-14T00:20:43;16.10;99.90
34877;DHT22;21086;44.780;17.194;2023-06-14T00:23:10;16.10;99.90
34877;DHT22;21086;44.780;17.194;2023-06-14T00:25:37;16.00;99.90
34877;DHT22;21086;44.780;17.194;2023-06-14T00:28:04;16.00;99.90
34877;DHT22;21086;44.780;17.194;2023-06-14T00:30:31;15.90;99.90
34877;DHT22;21086;44.780;17.194;2023-06-14T00:32:58;15.90;99.90
34877;DHT22;21086;44.780;17.194;2023-06-14T00:35:25;15.80;99.90
34877;DHT22;21086;44.780;17.194;2023-06-14T00:37:52;15.80;99.90
34877;DHT22;21086;44.780;17.194;2023-06-14T00:40:21;15.70;99.90
34877;DHT22;21086;44.780;17.194;2023-06-14T00:42:48;15.70;1.00
34877;DHT22;21086;44.780;17.194;2023-06-14T00:45:16;15.70;1.00
34877;DHT22;21086;44.780;17.194;2023-06-14T00:47:43;15.70;1.00
34877;DHT22;21086;44.780;17.194;2023-06-14T00:50:13;15.60;1.00
34877;DHT22;21086;44.780;17.194;2023-06-14T00:52:40;15.60;1.00
34877;DHT22;21086;44.780;17.194;2023-06-14T00:55:08;15.60;1.00
34877;DHT22;21086;44.780;17.194;2023-06-14T00:57:35;15.50;1.00
34877;DHT22;21086;44.780;17.194;2023-06-14T01:00:04;15.50;1.00
34877;DHT22;21086;44.780;17.194;2023-06-14T01:02:38;15.50;1.00
34877;DHT22;21086;44.780;17.194;2023-06-14T01:05:07;15.60;1.00
34877;DHT22;21086;44.780;17.194;2023-06-14T01:08:22;15.50;1.00
34877;DHT22;21086;44.780;17.194;2023-06-14T01:11:02;15.60;1.00
34877;DHT22;21086;44.780;17.194;2023-06-14T01:13:40;15.60;1.00
34877;DHT22;21086;44.780;17.194;2023-06-14T01:16:10;15.50;1.00
34877;DHT22;21086;44.780;17.194;2023-06-14T01:18:38;15.50;1.00
34877;DHT22;21086;44.780;17.194;2023-06-14T01:21:05;15.50;1.00
34877;DHT22;21086;44.780;17.194;2023-06-14T01:23:32;15.50;1.00
34877;DHT22;21086;44.780;17.194;2023-06-14T01:26:01;15.50;1.00
34877;DHT22;21086;44.780;17.194;2023-06-14T01:28:30;15.40;1.00
34877;DHT22;21086;44.780;17.194;2023-06-14T01:31:01;15.40;1.00
34877;DHT22;21086;44.780;17.194;2023-06-14T01:33:32;15.40;1.00
34877;DHT22;21086;44.780;17.194;2023-06-14T01:36:00;15.40;1.00
34877;DHT22;21086;44.780;17.194;2023-06-14T01:38:30;15.30;1.00
34877;DHT22;21086;44.780;17.194;2023-06-14T01:40:58;15.30;1.00
34877;DHT22;21086;44.780;17.194;2023-06-14T01:43:26;15.30;1.00
34877;DHT22;21086;44.780;17.194;2023-06-14T01:45:55;15.20;1.00
34877;DHT22;21086;44.780;17.194;2023-06-14T01:48:23;15.10;1.00
34877;DHT22;21086;44.780;17.194;2023-06-14T01:50:50;15.10;1.00
34877;DHT22;21086;44.780;17.194;2023-06-14T01:53:19;15.10;1.00
34877;DHT22;21086;44.780;17.194;2023-06-14T01:55:46;15.10;1.00
34877;DHT22;21086;44.780;17.194;2023-06-14T01:58:16;15.00;1.00
34877;DHT22;21086;44.780;17.194;2023-06-14T02:00:43;15.00;1.00
34877;DHT22;21086;44.780;17.194;2023-06-14T02:03:11;15.00;1.00
34877;DHT22;21086;44.780;17.194;2023-06-14T02:05:39;14.90;1.00
34877;DHT22;21086;44.780;17.194;2023-06-14T02:08:06;15.00;1.00
34877;DHT22;21086;44.780;17.194;2023-06-14T02:10:34;15.00;1.00
34877;DHT22;21086;44.780;17.194;2023-06-14T02:13:02;15.00;1.00
34877;DHT22;21086;44.780;17.194;2023-06-14T02:15:30;15.00;1.00
34877;DHT22;21086;44.780;17.194;2023-06-14T02:18:01;15.00;1.00
34877;DHT22;21086;44.780;17.194;2023-06-14T02:20:29;15.00;1.00
34877;DHT22;21086;44.780;17.194;2023-06-14T02:22:57;15.00;1.00
34877;DHT22;21086;44.780;17.194;2023-06-14T02:25:24;15.00;1.00
34877;DHT22;21086;44.780;17.194;2023-06-14T02:27:51;15.00;1.00
34877;DHT22;21086;44.780;17.194;2023-06-14T02:30:18;15.00;1.00
34877;DHT22;21086;44.780;17.194;2023-06-14T02:32:46;15.10;1.00
34877;DHT22;21086;44.780;17.194;2023-06-14T02:35:15;15.10;1.00
34877;DHT22;21086;44.780;17.194;2023-06-14T02:37:42;15.20;1.00
34877;DHT22;21086;44.780;17.194;2023-06-14T02:40:10;15.30;1.00
34877;DHT22;21086;44.780;17.194;2023-06-14T02:42:37;15.30;1.00
34877;DHT22;21086;44.780;17.194;2023-06-14T02:45:04;15.40;1.00
34877;DHT22;21086;44.780;17.194;2023-06-14T02:47:32;15.40;1.00
34877;DHT22;21086;44.780;17.194;2023-06-14T02:49:59;15.40;1.00
34877;DHT22;21086;44.780;17.194;2023-06-14T02:52:26;15.30;1.00
34877;DHT22;21086;44.780;17.194;2023-06-14T02:54:53;15.30;1.00
34877;DHT22;21086;44.780;17.194;2023-06-14T02:57:22;15.30;1.00
34877;DHT22;21086;44.780;17.194;2023-06-14T02:59:49;15.40;1.00
34877;DHT22;21086;44.780;17.194;2023-06-14T03:02:16;15.50;1.00
34877;DHT22;21086;44.780;17.194;2023-06-14T03:04:44;15.60;1.00
34877;DHT22;21086;44.780;17.194;2023-06-14T03:07:13;15.60;1.00
34877;DHT22;21086;44.780;17.194;2023-06-14T03:09:41;15.70;1.00
34877;DHT22;21086;44.780;17.194;2023-06-14T03:12:08;15.70;1.00
34877;DHT22;21086;44.780;17.194;2023-06-14T03:14:36;15.70;1.00
34877;DHT22;21086;44.780;17.194;2023-06-14T03:17:03;15.70;1.00
34877;DHT22;21086;44.780;17.194;2023-06-14T03:19:31;15.80;1.00
34877;DHT22;21086;44.780;17.194;2023-06-14T03:21:58;15.80;1.00
34877;DHT22;21086;44.780;17.194;2023-06-14T03:24:26;15.80;1.00
34877;DHT22;21086;44.780;17.194;2023-06-14T03:26:56;15.90;1.00
34877;DHT22;21086;44.780;17.194;2023-06-14T03:29:23;15.80;1.00
34877;DHT22;21086;44.780;17.194;2023-06-14T03:32:01;15.90;1.00
34877;DHT22;21086;44.780;17.194;2023-06-14T03:34:28;16.00;1.00
34877;DHT22;21086;44.780;17.194;2023-06-14T03:36:55;15.90;1.00
34877;DHT22;21086;44.780;17.194;2023-06-14T03:39:22;15.90;1.00
34877;DHT22;21086;44.780;17.194;2023-06-14T03:41:49;16.00;1.00
34877;DHT22;21086;44.780;17.194;2023-06-14T03:44:17;16.00;1.00
34877;DHT22;21086;44.780;17.194;2023-06-14T03:46:46;16.00;1.00
34877;DHT22;21086;44.780;17.194;2023-06-14T03:49:13;16.00;1.00
34877;DHT22;21086;44.780;17.194;2023-06-14T03:51:40;16.00;1.00
34877;DHT22;21086;44.780;17.194;2023-06-14T03:54:08;16.10;1.00
34877;DHT22;21086;44.780;17.194;2023-06-14T03:56:37;16.20;1.00
34877;DHT22;21086;44.780;17.194;2023-06-14T03:59:04;16.10;1.00
34877;DHT22;21086;44.780;17.194;2023-06-14T04:01:32;16.10;1.00
34877;DHT22;21086;44.780;17.194;2023-06-14T04:04:00;16.20;1.00
34877;DHT22;21086;44.780;17.194;2023-06-14T04:06:28;16.20;1.00
34877;DHT22;21086;44.780;17.194;2023-06-14T04:09:00;16.20;1.00
34877;DHT22;21086;44.780;17.194;2023-06-14T04:11:31;16.30;1.00
34877;DHT22;21086;44.780;17.194;2023-06-14T04:13:58;16.30;1.00
34877;DHT22;21086;44.780;17.194;2023-06-14T04:16:26;16.40;1.00
34877;DHT22;21086;44.780;17.194;2023-06-14T04:18:55;16.50;1.00
34877;DHT22;21086;44.780;17.194;2023-06-14T04:21:22;16.40;1.00
34877;DHT22;21086;44.780;17.194;2023-06-14T04:23:50;16.40;1.00
34877;DHT22;21086;44.780;17.194;2023-06-14T04:26:19;16.30;1.00
34877;DHT22;21086;44.780;17.194;2023-06-14T04:28:50;16.20;1.00
34877;DHT22;21086;44.780;17.194;2023-06-14T04:31:18;16.20;1.00
34877;DHT22;21086;44.780;17.194;2023-06-14T04:33:45;16.20;1.00
34877;DHT22;21086;44.780;17.194;2023-06-14T04:36:13;16.30;1.00
34877;DHT22;21086;44.780;17.194;2023-06-14T04:38:44;16.40;1.00
34877;DHT22;21086;44.780;17.194;2023-06-14T04:41:16;16.40;1.00
34877;DHT22;21086;44.780;17.194;2023-06-14T04:43:45;16.40;1.00
34877;DHT22;21086;44.780;17.194;2023-06-14T04:46:15;16.40;1.00
34877;DHT22;21086;44.780;17.194;2023-06-14T04:48:44;16.50;1.00
34877;DHT22;21086;44.780;17.194;2023-06-14T04:51:12;16.60;1.00
34877;DHT22;21086;44.780;17.194;2023-06-14T04:53:40;16.80;1.00
34877;DHT22;21086;44.780;17.194;2023-06-14T04:56:07;16.90;1.00
34877;DHT22;21086;44.780;17.194;2023-06-14T04:58:34;16.90;1.00
34877;DHT22;21086;44.780;17.194;2023-06-14T05:01:01;17.00;1.00
34877;DHT22;21086;44.780;17.194;2023-06-14T05:03:29;17.00;1.00
34877;DHT22;21086;44.780;17.194;2023-06-14T05:05:57;17.00;1.00
34877;DHT22;21086;44.780;17.194;2023-06-14T05:08:25;17.00;1.00
34877;DHT22;21086;44.780;17.194;2023-06-14T05:10:53;17.10;1.00
34877;DHT22;21086;44.780;17.194;2023-06-14T05:13:20;17.10;1.00
34877;DHT22;21086;44.780;17.194;2023-06-14T05:15:49;17.10;1.00
34877;DHT22;21086;44.780;17.194;2023-06-14T05:18:16;17.20;1.00
34877;DHT22;21086;44.780;17.194;2023-06-14T05:20:43;17.40;1.00
34877;DHT22;21086;44.780;17.194;2023-06-14T05:23:10;17.50;1.00
34877;DHT22;21086;44.780;17.194;2023-06-14T05:25:46;17.70;1.00
34877;DHT22;21086;44.780;17.194;2023-06-14T05:28:13;17.90;1.00
34877;DHT22;21086;44.780;17.194;2023-06-14T05:30:40;18.00;1.00
34877;DHT22;21086;44.780;17.194;2023-06-14T05:33:07;18.00;1.00
34877;DHT22;21086;44.780;17.194;2023-06-14T05:35:35;19.40;1.00
34877;DHT22;21086;44.780;17.194;2023-06-14T05:38:02;18.20;1.00
34877;DHT22;21086;44.780;17.194;2023-06-14T05:40:29;18.30;1.00
34877;DHT22;21086;44.780;17.194;2023-06-14T05:42:56;18.40;1.00
34877;DHT22;21086;44.780;17.194;2023-06-14T05:45:23;18.40;1.00
34877;DHT22;21086;44.780;17.194;2023-06-14T05:47:51;18.50;1.00
34877;DHT22;21086;44.780;17.194;2023-06-14T05:50:19;18.60;1.00
34877;DHT22;21086;44.780;17.194;2023-06-14T05:52:46;18.70;1.00
34877;DHT22;21086;44.780;17.194;2023-06-14T05:55:15;18.90;1.00
34877;DHT22;21086;44.780;17.194;2023-06-14T05:57:43;19.00;1.00
34877;DHT22;21086;44.780;17.194;2023-06-14T06:00:10;19.20;1.00
34877;DHT22;21086;44.780;17.194;2023-06-14T06:02:38;19.40;1.00
34877;DHT22;21086;44.780;17.194;2023-06-14T06:05:05;19.40;1.00
34877;DHT22;21086;44.780;17.194;2023-06-14T06:07:32;19.50;99.90
34877;DHT22;21086;44.780;17.194;2023-06-14T06:10:03;19.70;99.90
34877;DHT22;21086;44.780;17.194;2023-06-14T06:12:32;19.90;99.90
34877;DHT22;21086;44.780;17.194;2023-06-14T06:14:59;19.90;99.90
34877;DHT22;21086;44.780;17.194;2023-06-14T06:17:26;19.80;99.90
34877;DHT22;21086;44.780;17.194;2023-06-14T06:20:08;19.80;99.90
34877;DHT22;21086;44.780;17.194;2023-06-14T06:22:37;19.80;99.90
34877;DHT22;21086;44.780;17.194;2023-06-14T06:25:04;19.80;99.90
34877;DHT22;21086;44.780;17.194;2023-06-14T06:27:31;19.80;99.90
34877;DHT22;21086;44.780;17.194;2023-06-14T06:29:58;19.80;99.90
34877;DHT22;21086;44.780;17.194;2023-06-14T06:32:25;19.80;99.90
34877;DHT22;21086;44.780;17.194;2023-06-14T06:34:52;19.80;99.90
34877;DHT22;21086;44.780;17.194;2023-06-14T06:37:19;19.90;99.90
34877;DHT22;21086;44.780;17.194;2023-06-14T06:39:46;20.10;99.90
34877;DHT22;21086;44.780;17.194;2023-06-14T06:42:14;20.20;99.90
34877;DHT22;21086;44.780;17.194;2023-06-14T06:44:42;20.40;99.90
34877;DHT22;21086;44.780;17.194;2023-06-14T06:47:09;20.60;99.90
34877;DHT22;21086;44.780;17.194;2023-06-14T06:49:38;20.60;99.90
34877;DHT22;21086;44.780;17.194;2023-06-14T06:52:06;20.60;99.90
34877;DHT22;21086;44.780;17.194;2023-06-14T06:54:34;20.70;99.90
34877;DHT22;21086;44.780;17.194;2023-06-14T06:57:09;20.70;99.90
34877;DHT22;21086;44.780;17.194;2023-06-14T06:59:38;21.00;99.90
34877;DHT22;21086;44.780;17.194;2023-06-14T07:02:05;21.00;99.90
34877;DHT22;21086;44.780;17.194;2023-06-14T07:04:32;21.00;99.90
34877;DHT22;21086;44.780;17.194;2023-06-14T07:06:59;21.20;99.90
34877;DHT22;21086;44.780;17.194;2023-06-14T07:09:27;21.30;99.90
34877;DHT22;21086;44.780;17.194;2023-06-14T07:11:54;21.40;99.90
34877;DHT22;21086;44.780;17.194;2023-06-14T07:14:21;21.70;99.90
34877;DHT22;21086;44.780;17.194;2023-06-14T07:16:50;22.00;99.90
34877;DHT22;21086;44.780;17.194;2023-06-14T07:19:18;22.20;99.90
34877;DHT22;21086;44.780;17.194;2023-06-14T07:21:45;22.40;99.90
34877;DHT22;21086;44.780;17.194;2023-06-14T07:24:13;22.50;99.90
34877;DHT22;21086;44.780;17.194;2023-06-14T07:26:40;22.60;99.90
34877;DHT22;21086;44.780;17.194;2023-06-14T07:29:07;22.70;99.90
34877;DHT22;21086;44.780;17.194;2023-06-14T07:31:34;22.60;99.90
34877;DHT22;21086;44.780;17.194;2023-06-14T07:34:01;22.70;99.90
34877;DHT22;21086;44.780;17.194;2023-06-14T07:36:28;22.80;99.90
34877;DHT22;21086;44.780;17.194;2023-06-14T07:38:55;22.80;99.90
34877;DHT22;21086;44.780;17.194;2023-06-14T07:41:23;22.70;99.90
34877;DHT22;21086;44.780;17.194;2023-06-14T07:43:50;22.80;99.90
34877;DHT22;21086;44.780;17.194;2023-06-14T07:46:17;23.00;99.90
34877;DHT22;21086;44.780;17.194;2023-06-14T07:48:45;23.10;99.90
34877;DHT22;21086;44.780;17.194;2023-06-14T07:51:12;23.20;99.90
34877;DHT22;21086;44.780;17.194;2023-06-14T07:53:39;23.30;99.90
34877;DHT22;21086;44.780;17.194;2023-06-14T07:56:07;23.50;99.90
34877;DHT22;21086;44.780;17.194;2023-06-14T07:58:34;23.70;99.90
34877;DHT22;21086;44.780;17.194;2023-06-14T08:01:02;23.70;99.90
34877;DHT22;21086;44.780;17.194;2023-06-14T08:03:33;23.80;99.90
34877;DHT22;21086;44.780;17.194;2023-06-14T08:06:00;24.00;99.90
34877;DHT22;21086;44.780;17.194;2023-06-14T08:08:28;24.00;99.90
34877;DHT22;21086;44.780;17.194;2023-06-14T08:10:55;24.00;99.90
34877;DHT22;21086;44.780;17.194;2023-06-14T08:13:23;24.10;99.90
34877;DHT22;21086;44.780;17.194;2023-06-14T08:15:50;24.20;99.90
34877;DHT22;21086;44.780;17.194;2023-06-14T08:18:17;24.40;99.90
34877;DHT22;21086;44.780;17.194;2023-06-14T08:20:44;24.50;99.90
34877;DHT22;21086;44.780;17.194;2023-06-14T08:23:11;24.40;99.90
34877;DHT22;21086;44.780;17.194;2023-06-14T08:25:38;24.30;99.90
34877;DHT22;21086;44.780;17.194;2023-06-14T08:28:05;24.30;99.90
34877;DHT22;21086;44.780;17.194;2023-06-14T08:30:33;24.30;99.90
34877;DHT22;21086;44.780;17.194;2023-06-14T08:32:59;24.30;99.90
34877;DHT22;21086;44.780;17.194;2023-06-14T08:35:42;24.40;99.90
34877;DHT22;21086;44.780;17.194;2023-06-14T08:38:10;24.50;99.90
34877;DHT22;21086;44.780;17.194;2023-06-14T08:40:39;24.70;99.90
34877;DHT22;21086;44.780;17.194;2023-06-14T08:43:07;24.80;99.90
34877;DHT22;21086;44.780;17.194;2023-06-14T08:45:34;24.90;99.90
34877;DHT22;21086;44.780;17.194;2023-06-14T08:48:01;25.00;99.90
34877;DHT22;21086;44.780;17.194;2023-06-14T08:50:30;24.80;99.90
34877;DHT22;21086;44.780;17.194;2023-06-14T08:53:01;24.90;99.90
34877;DHT22;21086;44.780;17.194;2023-06-14T08:55:31;24.90;99.90
34877;DHT22;21086;44.780;17.194;2023-06-14T08:58:03;25.00;99.90
34877;DHT22;21086;44.780;17.194;2023-06-14T09:00:31;25.10;99.90
34877;DHT22;21086;44.780;17.194;2023-06-14T09:03:00;25.20;99.90
34877;DHT22;21086;44.780;17.194;2023-06-14T09:05:28;25.40;99.90
34877;DHT22;21086;44.780;17.194;2023-06-14T09:07:55;25.40;99.90
34877;DHT22;21086;44.780;17.194;2023-06-14T09:10:32;25.30;99.90
34877;DHT22;21086;44.780;17.194;2023-06-14T09:13:05;25.50;99.90
34877;DHT22;21086;44.780;17.194;2023-06-14T09:15:32;25.70;99.90
34877;DHT22;21086;44.780;17.194;2023-06-14T09:18:01;25.80;99.90
34877;DHT22;21086;44.780;17.194;2023-06-14T09:20:30;26.10;99.90
34877;DHT22;21086;44.780;17.194;2023-06-14T09:22:58;26.20;99.90
34877;DHT22;21086;44.780;17.194;2023-06-14T09:25:25;26.40;99.90
34877;DHT22;21086;44.780;17.194;2023-06-14T09:28:07;26.60;99.90
34877;DHT22;21086;44.780;17.194;2023-06-14T09:30:37;26.80;99.90
34877;DHT22;21086;44.780;17.194;2023-06-14T09:33:04;26.80;99.90
34877;DHT22;21086;44.780;17.194;2023-06-14T09:35:32;26.50;99.90
34877;DHT22;21086;44.780;17.194;2023-06-14T09:37:59;26.60;99.90
34877;DHT22;21086;44.780;17.194;2023-06-14T09:40:27;26.60;99.90
34877;DHT22;21086;44.780;17.194;2023-06-14T09:42:54;26.70;99.90
34877;DHT22;21086;44.780;17.194;2023-06-14T09:45:25;26.60;99.90
34877;DHT22;21086;44.780;17.194;2023-06-14T09:47:57;26.70;99.90
34877;DHT22;21086;44.780;17.194;2023-06-14T09:50:34;26.80;99.90
34877;DHT22;21086;44.780;17.194;2023-06-14T09:53:11;27.00;99.90
34877;DHT22;21086;44.780;17.194;2023-06-14T09:55:41;27.00;99.90
34877;DHT22;21086;44.780;17.194;2023-06-14T09:58:10;27.30;99.90
34877;DHT22;21086;44.780;17.194;2023-06-14T10:00:39;27.50;99.90
34877;DHT22;21086;44.780;17.194;2023-06-14T10:03:13;27.60;99.90
34877;DHT22;21086;44.780;17.194;2023-06-14T10:05:48;28.00;99.90
34877;DHT22;21086;44.780;17.194;2023-06-14T10:08:19;28.30;99.90
34877;DHT22;21086;44.780;17.194;2023-06-14T10:10:46;28.60;99.90
34877;DHT22;21086;44.780;17.194;2023-06-14T10:13:15;28.90;99.90
34877;DHT22;21086;44.780;17.194;2023-06-14T10:19:40;29.30;99.90
34877;DHT22;21086;44.780;17.194;2023-06-14T10:21:55;29.30;99.90
34877;DHT22;21086;44.780;17.194;2023-06-14T10:24:37;29.30;99.90
34877;DHT22;21086;44.780;17.194;2023-06-14T10:27:07;29.00;99.90
34877;DHT22;21086;44.780;17.194;2023-06-14T10:32:28;28.80;99.90
34877;DHT22;21086;44.780;17.194;2023-06-14T10:34:56;28.90;99.90
34877;DHT22;21086;44.780;17.194;2023-06-14T10:37:24;28.70;99.90
34877;DHT22;21086;44.780;17.194;2023-06-14T10:39:51;29.00;99.90
34877;DHT22;21086;44.780;17.194;2023-06-14T10:42:20;29.20;99.90
34877;DHT22;21086;44.780;17.194;2023-06-14T10:44:50;29.50;99.90
34877;DHT22;21086;44.780;17.194;2023-06-14T10:49:52;29.40;99.90
34877;DHT22;21086;44.780;17.194;2023-06-14T10:52:28;29.60;99.90
34877;DHT22;21086;44.780;17.194;2023-06-14T10:57:28;29.30;99.90
34877;DHT22;21086;44.780;17.194;2023-06-14T10:59:58;29.10;99.90
34877;DHT22;21086;44.780;17.194;2023-06-14T11:02:46;29.10;99.90
34877;DHT22;21086;44.780;17.194;2023-06-14T11:05:15;28.90;99.90
34877;DHT22;21086;44.780;17.194;2023-06-14T11:11:00;29.20;99.90
34877;DHT22;21086;44.780;17.194;2023-06-14T11:13:27;29.10;99.90
34877;DHT22;21086;44.780;17.194;2023-06-14T11:15:58;29.30;99.90
34877;DHT22;21086;44.780;17.194;2023-06-14T11:18:25;29.50;99.90
34877;DHT22;21086;44.780;17.194;2023-06-14T11:20:54;29.90;99.90
34877;DHT22;21086;44.780;17.194;2023-06-14T11:23:22;30.00;99.90
34877;DHT22;21086;44.780;17.194;2023-06-14T11:25:52;30.10;99.90
34877;DHT22;21086;44.780;17.194;2023-06-14T11:28:19;30.20;99.90
34877;DHT22;21086;44.780;17.194;2023-06-14T11:31:01;30.50;99.90
34877;DHT22;21086;44.780;17.194;2023-06-14T11:33:28;30.50;99.90
34877;DHT22;21086;44.780;17.194;2023-06-14T11:35:55;30.10;99.90
34877;DHT22;21086;44.780;17.194;2023-06-14T11:38:22;30.00;99.90
34877;DHT22;21086;44.780;17.194;2023-06-14T11:40:50;29.70;99.90
34877;DHT22;21086;44.780;17.194;2023-06-14T11:43:16;29.30;99.90
34877;DHT22;21086;44.780;17.194;2023-06-14T11:45:48;29.30;99.90
34877;DHT22;21086;44.780;17.194;2023-06-14T11:48:38;29.00;99.90
34877;DHT22;21086;44.780;17.194;2023-06-14T11:51:06;29.30;99.90
34877;DHT22;21086;44.780;17.194;2023-06-14T11:53:33;29.40;99.90
34877;DHT22;21086;44.780;17.194;2023-06-14T11:56:01;29.30;99.90
34877;DHT22;21086;44.780;17.194;2023-06-14T11:58:29;29.60;99.90
34877;DHT22;21086;44.780;17.194;2023-06-14T12:00:57;30.00;99.90
34877;DHT22;21086;44.780;17.194;2023-06-14T12:03:26;30.30;99.90
34877;DHT22;21086;44.780;17.194;2023-06-14T12:06:08;30.60;99.90
34877;DHT22;21086;44.780;17.194;2023-06-14T12:08:37;31.10;99.90
34877;DHT22;21086;44.780;17.194;2023-06-14T12:11:11;31.40;99.90
34877;DHT22;21086;44.780;17.194;2023-06-14T12:13:40;31.80;99.90
34877;DHT22;21086;44.780;17.194;2023-06-14T12:16:09;32.10;99.90
34877;DHT22;21086;44.780;17.194;2023-06-14T12:18:37;32.00;99.90
34877;DHT22;21086;44.780;17.194;2023-06-14T12:21:07;31.50;99.90
34877;DHT22;21086;44.780;17.194;2023-06-14T12:23:49;31.00;99.90
34877;DHT22;21086;44.780;17.194;2023-06-14T12:26:19;30.50;99.90
34877;DHT22;21086;44.780;17.194;2023-06-14T12:28:47;30.10;99.90
34877;DHT22;21086;44.780;17.194;2023-06-14T12:31:15;30.00;99.90
34877;DHT22;21086;44.780;17.194;2023-06-14T12:33:43;29.80;99.90
34877;DHT22;21086;44.780;17.194;2023-06-14T12:36:13;29.60;99.90
34877;DHT22;21086;44.780;17.194;2023-06-14T12:38:40;29.60;99.90
34877;DHT22;21086;44.780;17.194;2023-06-14T12:41:08;30.10;99.90
34877;DHT22;21086;44.780;17.194;2023-06-14T12:43:36;30.20;99.90
34877;DHT22;21086;44.780;17.194;2023-06-14T12:46:03;30.10;99.90
34877;DHT22;21086;44.780;17.194;2023-06-14T12:48:30;30.10;99.90
34877;DHT22;21086;44.780;17.194;2023-06-14T12:50:58;30.20;99.90
34877;DHT22;21086;44.780;17.194;2023-06-14T12:53:25;29.80;99.90
34877;DHT22;21086;44.780;17.194;2023-06-14T12:55:52;30.00;99.90
34877;DHT22;21086;44.780;17.194;2023-06-14T12:58:19;29.90;99.90
34877;DHT22;21086;44.780;17.194;2023-06-14T13:00:47;29.90;99.90
34877;DHT22;21086;44.780;17.194;2023-06-14T13:03:15;30.10;99.90
34877;DHT22;21086;44.780;17.194;2023-06-14T13:05:42;30.50;99.90
34877;DHT22;21086;44.780;17.194;2023-06-14T13:08:10;31.20;99.90
34877;DHT22;21086;44.780;17.194;2023-06-14T13:10:37;31.10;99.90
34877;DHT22;21086;44.780;17.194;2023-06-14T13:13:04;31.60;99.90
34877;DHT22;21086;44.780;17.194;2023-06-14T13:15:31;32.10;99.90
34877;DHT22;21086;44.780;17.194;2023-06-14T13:17:58;32.30;99.90
34877;DHT22;21086;44.780;17.194;2023-06-14T13:20:25;33.90;99.90
34877;DHT22;21086;44.780;17.194;2023-06-14T13:22:52;35.20;99.90
34877;DHT22;21086;44.780;17.194;2023-06-14T13:25:19;35.40;99.90
34877;DHT22;21086;44.780;17.194;2023-06-14T13:27:46;37.30;99.90
34877;DHT22;21086;44.780;17.194;2023-06-14T13:30:14;39.10;99.90
34877;DHT22;21086;44.780;17.194;2023-06-14T13:32:42;39.10;99.90
34877;DHT22;21086;44.780;17.194;2023-06-14T13:35:09;35.90;99.90
34877;DHT22;21086;44.780;17.194;2023-06-14T13:37:37;33.50;99.90
34877;DHT22;21086;44.780;17.194;2023-06-14T13:40:04;32.30;99.90
34877;DHT22;21086;44.780;17.194;2023-06-14T13:42:32;31.70;99.90
34877;DHT22;21086;44.780;17.194;2023-06-14T13:44:59;33.80;99.90
34877;DHT22;21086;44.780;17.194;2023-06-14T13:47:26;37.10;99.90
34877;DHT22;21086;44.780;17.194;2023-06-14T13:49:54;38.60;99.90
34877;DHT22;21086;44.780;17.194;2023-06-14T13:52:21;38.10;99.90
34877;DHT22;21086;44.780;17.194;2023-06-14T13:54:48;38.70;99.90
34877;DHT22;21086;44.780;17.194;2023-06-14T13:57:16;37.70;99.90
34877;DHT22;21086;44.780;17.194;2023-06-14T13:59:43;36.20;99.90
34877;DHT22;21086;44.780;17.194;2023-06-14T14:02:12;34.90;99.90
34877;DHT22;21086;44.780;17.194;2023-06-14T14:04:41;33.60;99.90
34877;DHT22;21086;44.780;17.194;2023-06-14T14:07:09;32.50;99.90
34877;DHT22;21086;44.780;17.194;2023-06-14T14:09:36;31.90;99.90
34877;DHT22;21086;44.780;17.194;2023-06-14T14:12:04;31.30;99.90
34877;DHT22;21086;44.780;17.194;2023-06-14T14:14:32;30.70;99.90
34877;DHT22;21086;44.780;17.194;2023-06-14T14:16:59;30.00;99.90
34877;DHT22;21086;44.780;17.194;2023-06-14T14:19:26;29.60;99.90
34877;DHT22;21086;44.780;17.194;2023-06-14T14:21:53;29.30;99.90
34877;DHT22;21086;44.780;17.194;2023-06-14T14:24:20;28.80;99.90
34877;DHT22;21086;44.780;17.194;2023-06-14T14:26:48;28.30;99.90
34877;DHT22;21086;44.780;17.194;2023-06-14T14:29:16;28.00;99.90
34877;DHT22;21086;44.780;17.194;2023-06-14T14:31:44;27.50;99.90
34877;DHT22;21086;44.780;17.194;2023-06-14T14:34:11;27.20;99.90
34877;DHT22;21086;44.780;17.194;2023-06-14T14:36:38;27.00;99.90
34877;DHT22;21086;44.780;17.194;2023-06-14T14:39:09;26.80;99.90
34877;DHT22;21086;44.780;17.194;2023-06-14T14:41:36;26.80;99.90
34877;DHT22;21086;44.780;17.194;2023-06-14T14:44:08;26.70;99.90
34877;DHT22;21086;44.780;17.194;2023-06-14T14:46:35;26.60;99.90
34877;DHT22;21086;44.780;17.194;2023-06-14T14:49:02;26.40;99.90
34877;DHT22;21086;44.780;17.194;2023-06-14T14:51:29;26.40;99.90
34877;DHT22;21086;44.780;17.194;2023-06-14T14:53:56;26.30;99.90
34877;DHT22;21086;44.780;17.194;2023-06-14T14:56:23;26.10;99.90
34877;DHT22;21086;44.780;17.194;2023-06-14T14:58:52;26.00;99.90
34877;DHT22;21086;44.780;17.194;2023-06-14T15:01:19;25.80;99.90
34877;DHT22;21086;44.780;17.194;2023-06-14T15:03:46;25.50;99.90
34877;DHT22;21086;44.780;17.194;2023-06-14T15:06:16;25.30;99.90
34877;DHT22;21086;44.780;17.194;2023-06-14T15:08:44;25.20;99.90
34877;DHT22;21086;44.780;17.194;2023-06-14T15:11:12;25.00;99.90
34877;DHT22;21086;44.780;17.194;2023-06-14T15:13:39;24.90;99.90
34877;DHT22;21086;44.780;17.194;2023-06-14T15:16:06;24.90;99.90
34877;DHT22;21086;44.780;17.194;2023-06-14T15:18:33;24.80;99.90
34877;DHT22;21086;44.780;17.194;2023-06-14T15:21:02;24.90;99.90
34877;DHT22;21086;44.780;17.194;2023-06-14T15:23:29;24.90;99.90
34877;DHT22;21086;44.780;17.194;2023-06-14T15:25:56;24.90;99.90
34877;DHT22;21086;44.780;17.194;2023-06-14T15:28:24;24.80;99.90
34877;DHT22;21086;44.780;17.194;2023-06-14T15:31:00;25.00;99.90
34877;DHT22;21086;44.780;17.194;2023-06-14T15:33:27;25.00;99.90
34877;DHT22;21086;44.780;17.194;2023-06-14T15:35:54;25.10;99.90
34877;DHT22;21086;44.780;17.194;2023-06-14T15:38:22;25.10;99.90
34877;DHT22;21086;44.780;17.194;2023-06-14T15:40:49;25.00;99.90
34877;DHT22;21086;44.780;17.194;2023-06-14T15:43:18;25.00;99.90